sensor_id;sensor_type;location;lat;lon;timestamp;temperature;humidity
52058;DHT22;38063;53.210;6.504;2023-07-29T00:00:46;18.50;99.90
52058;DHT22;38063;53.210;6.504;2023-07-29T00:03:12;18.50;99.90
52058;DHT22;38063;53.210;6.504;2023-07-29T00:05:38;18.50;99.90
52058;DHT22;38063;53.210;6.504;2023-07-29T00:08:04;18.50;99.90
52058;DHT22;38063;53.210;6.504;2023-07-29T00:10:32;18.50;99.90
52058;DHT22;38063;53.210;6.504;2023-07-29T00:12:58;18.50;99.90
52058;DHT22;38063;53.210;6.504;2023-07-29T00:15:23;18.50;99.90
52058;DHT22;38063;53.210;6.504;2023-07-29T00:17:49;18.50;99.90
52058;DHT22;38063;53.210;6.504;2023-07-29T00:20:15;18.50;99.90
52058;DHT22;38063;53.210;6.504;2023-07-29T00:22:41;18.50;99.90
52058;DHT22;38063;53.210;6.504;2023-07-29T00:25:07;18.50;99.90
52058;DHT22;38063;53.210;6.504;2023-07-29T00:27:32;18.40;99.90
52058;DHT22;38063;53.210;6.504;2023-07-29T00:29:58;18.40;99.90
52058;DHT22;38063;53.210;6.504;2023-07-29T00:32:24;18.40;99.90
52058;DHT22;38063;53.210;6.504;2023-07-29T00:34:49;18.40;99.90
52058;DHT22;38063;53.210;6.504;2023-07-29T00:37:15;18.40;99.90
52058;DHT22;38063;53.210;6.504;2023-07-29T00:39:40;18.40;99.90
52058;DHT22;38063;53.210;6.504;2023-07-29T00:42:06;18.30;99.90
52058;DHT22;38063;53.210;6.504;2023-07-29T00:44:32;18.40;99.90
52058;DHT22;38063;53.210;6.504;2023-07-29T00:46:58;18.30;99.90
52058;DHT22;38063;53.210;6.504;2023-07-29T00:49:26;18.30;99.90
52058;DHT22;38063;53.210;6.504;2023-07-29T00:51:51;18.30;99.90
52058;DHT22;38063;53.210;6.504;2023-07-29T00:54:17;18.20;99.90
52058;DHT22;38063;53.210;6.504;2023-07-29T00:56:43;18.30;99.90
52058;DHT22;38063;53.210;6.504;2023-07-29T00:59:08;18.30;99.90
52058;DHT22;38063;53.210;6.504;2023-07-29T01:01:34;18.30;99.90
52058;DHT22;38063;53.210;6.504;2023-07-29T01:04:00;18.30;99.90
52058;DHT22;38063;53.210;6.504;2023-07-29T01:09:51;18.30;99.90
52058;DHT22;38063;53.210;6.504;2023-07-29T01:18:15;18.20;99.90
52058;DHT22;38063;53.210;6.504;2023-07-29T01:20:44;18.20;99.90
52058;DHT22;38063;53.210;6.504;2023-07-29T01:23:11;18.10;99.90
52058;DHT22;38063;53.210;6.504;2023-07-29T01:25:36;18.10;99.90
52058;DHT22;38063;53.210;6.504;2023-07-29T01:28:02;18.20;99.90
52058;DHT22;38063;53.210;6.504;2023-07-29T01:30:39;18.10;99.90
52058;DHT22;38063;53.210;6.504;2023-07-29T01:33:16;18.10;99.90
52058;DHT22;38063;53.210;6.504;2023-07-29T01:35:49;18.10;99.90
52058;DHT22;38063;53.210;6.504;2023-07-29T01:38:24;18.00;99.90
52058;DHT22;38063;53.210;6.504;2023-07-29T01:40:54;18.00;99.90
52058;DHT22;38063;53.210;6.504;2023-07-29T01:43:20;17.90;99.90
52058;DHT22;38063;53.210;6.504;2023-07-29T01:45:49;17.90;99.90
52058;DHT22;38063;53.210;6.504;2023-07-29T01:48:15;17.80;99.90
52058;DHT22;38063;53.210;6.504;2023-07-29T01:50:40;17.80;99.90
52058;DHT22;38063;53.210;6.504;2023-07-29T01:53:06;17.80;99.90
52058;DHT22;38063;53.210;6.504;2023-07-29T01:55:32;17.70;99.90
52058;DHT22;38063;53.210;6.504;2023-07-29T01:57:57;17.70;99.90
52058;DHT22;38063;53.210;6.504;2023-07-29T02:00:23;17.60;99.90
52058;DHT22;38063;53.210;6.504;2023-07-29T02:02:49;17.60;99.90
52058;DHT22;38063;53.210;6.504;2023-07-29T02:05:15;17.60;99.90
52058;DHT22;38063;53.210;6.504;2023-07-29T02:07:40;17.60;99.90
52058;DHT22;38063;53.210;6.504;2023-07-29T02:10:06;17.50;99.90
52058;DHT22;38063;53.210;6.504;2023-07-29T02:12:33;17.50;99.90
52058;DHT22;38063;53.210;6.504;2023-07-29T02:14:59;17.40;99.90
52058;DHT22;38063;53.210;6.504;2023-07-29T02:17:24;17.40;99.90
52058;DHT22;38063;53.210;6.504;2023-07-29T02:19:51;17.40;99.90
52058;DHT22;38063;53.210;6.504;2023-07-29T02:22:17;17.40;99.90
52058;DHT22;38063;53.210;6.504;2023-07-29T02:24:44;17.30;99.90
52058;DHT22;38063;53.210;6.504;2023-07-29T02:27:10;17.30;99.90
52058;DHT22;38063;53.210;6.504;2023-07-29T02:29:36;17.30;99.90
52058;DHT22;38063;53.210;6.504;2023-07-29T02:32:02;17.30;99.90
52058;DHT22;38063;53.210;6.504;2023-07-29T02:34:28;17.30;99.90
52058;DHT22;38063;53.210;6.504;2023-07-29T02:36:54;17.20;99.90
52058;DHT22;38063;53.210;6.504;2023-07-29T02:39:19;17.20;99.90
52058;DHT22;38063;53.210;6.504;2023-07-29T02:41:45;17.20;99.90
52058;DHT22;38063;53.210;6.504;2023-07-29T02:44:11;17.20;99.90
52058;DHT22;38063;53.210;6.504;2023-07-29T02:46:36;17.10;99.90
52058;DHT22;38063;53.210;6.504;2023-07-29T02:49:03;17.00;99.90
52058;DHT22;38063;53.210;6.504;2023-07-29T02:51:30;17.00;99.90
52058;DHT22;38063;53.210;6.504;2023-07-29T02:53:55;17.00;99.90
52058;DHT22;38063;53.210;6.504;2023-07-29T02:56:21;16.90;99.90
52058;DHT22;38063;53.210;6.504;2023-07-29T02:58:47;16.90;99.90
52058;DHT22;38063;53.210;6.504;2023-07-29T03:01:12;16.90;99.90
52058;DHT22;38063;53.210;6.504;2023-07-29T03:03:39;16.90;99.90
52058;DHT22;38063;53.210;6.504;2023-07-29T03:06:07;16.90;99.90
52058;DHT22;38063;53.210;6.504;2023-07-29T03:08:33;16.80;99.90
52058;DHT22;38063;53.210;6.504;2023-07-29T03:11:04;16.90;99.90
52058;DHT22;38063;53.210;6.504;2023-07-29T03:13:30;16.80;99.90
52058;DHT22;38063;53.210;6.504;2023-07-29T03:16:07;16.80;99.90
52058;DHT22;38063;53.210;6.504;2023-07-29T03:18:33;16.80;99.90
52058;DHT22;38063;53.210;6.504;2023-07-29T03:20:59;16.80;99.90
52058;DHT22;38063;53.210;6.504;2023-07-29T03:23:25;16.80;99.90
52058;DHT22;38063;53.210;6.504;2023-07-29T03:25:50;16.80;99.90
52058;DHT22;38063;53.210;6.504;2023-07-29T03:28:17;16.70;99.90
52058;DHT22;38063;53.210;6.504;2023-07-29T03:30:42;16.70;99.90
52058;DHT22;38063;53.210;6.504;2023-07-29T03:33:08;16.70;99.90
52058;DHT22;38063;53.210;6.504;2023-07-29T03:35:34;16.60;99.90
52058;DHT22;38063;53.210;6.504;2023-07-29T03:37:59;16.60;99.90
52058;DHT22;38063;53.210;6.504;2023-07-29T03:40:25;16.60;99.90
52058;DHT22;38063;53.210;6.504;2023-07-29T03:42:50;16.50;99.90
52058;DHT22;38063;53.210;6.504;2023-07-29T03:45:16;16.60;99.90
52058;DHT22;38063;53.210;6.504;2023-07-29T03:47:42;16.50;99.90
52058;DHT22;38063;53.210;6.504;2023-07-29T03:50:08;16.50;99.90
52058;DHT22;38063;53.210;6.504;2023-07-29T03:52:33;16.50;99.90
52058;DHT22;38063;53.210;6.504;2023-07-29T03:54:59;16.50;99.90
52058;DHT22;38063;53.210;6.504;2023-07-29T03:57:25;16.40;99.90
52058;DHT22;38063;53.210;6.504;2023-07-29T03:59:50;16.40;99.90
52058;DHT22;38063;53.210;6.504;2023-07-29T04:02:16;16.50;99.90
52058;DHT22;38063;53.210;6.504;2023-07-29T04:04:42;16.40;99.90
52058;DHT22;38063;53.210;6.504;2023-07-29T04:07:09;16.40;99.90
52058;DHT22;38063;53.210;6.504;2023-07-29T04:09:35;16.30;99.90
52058;DHT22;38063;53.210;6.504;2023-07-29T04:12:01;16.40;99.90
52058;DHT22;38063;53.210;6.504;2023-07-29T04:14:27;16.60;99.90
52058;DHT22;38063;53.210;6.504;2023-07-29T04:16:53;16.30;99.90
52058;DHT22;38063;53.210;6.504;2023-07-29T04:19:18;16.30;99.90
52058;DHT22;38063;53.210;6.504;2023-07-29T04:21:44;16.30;99.90
52058;DHT22;38063;53.210;6.504;2023-07-29T04:24:09;16.30;99.90
52058;DHT22;38063;53.210;6.504;2023-07-29T04:26:35;16.40;99.90
52058;DHT22;38063;53.210;6.504;2023-07-29T04:29:01;16.40;99.90
52058;DHT22;38063;53.210;6.504;2023-07-29T04:31:26;16.40;99.90
52058;DHT22;38063;53.210;6.504;2023-07-29T04:33:52;16.40;99.90
52058;DHT22;38063;53.210;6.504;2023-07-29T04:36:17;16.40;99.90
52058;DHT22;38063;53.210;6.504;2023-07-29T04:38:43;16.40;99.90
52058;DHT22;38063;53.210;6.504;2023-07-29T04:41:09;16.40;99.90
52058;DHT22;38063;53.210;6.504;2023-07-29T04:43:34;16.40;99.90
52058;DHT22;38063;53.210;6.504;2023-07-29T04:46:00;16.50;99.90
52058;DHT22;38063;53.210;6.504;2023-07-29T04:48:26;16.50;99.90
52058;DHT22;38063;53.210;6.504;2023-07-29T04:50:51;16.50;99.90
52058;DHT22;38063;53.210;6.504;2023-07-29T04:53:17;16.60;99.90
52058;DHT22;38063;53.210;6.504;2023-07-29T04:55:43;16.60;99.90
52058;DHT22;38063;53.210;6.504;2023-07-29T04:58:09;16.60;99.90
52058;DHT22;38063;53.210;6.504;2023-07-29T05:00:35;16.60;99.90
52058;DHT22;38063;53.210;6.504;2023-07-29T05:03:00;16.70;99.90
52058;DHT22;38063;53.210;6.504;2023-07-29T05:05:26;16.70;99.90
52058;DHT22;38063;53.210;6.504;2023-07-29T05:07:52;16.80;99.90
52058;DHT22;38063;53.210;6.504;2023-07-29T05:10:18;16.80;99.90
52058;DHT22;38063;53.210;6.504;2023-07-29T05:12:44;16.80;99.90
52058;DHT22;38063;53.210;6.504;2023-07-29T05:15:09;16.80;99.90
52058;DHT22;38063;53.210;6.504;2023-07-29T05:17:35;16.80;99.90
52058;DHT22;38063;53.210;6.504;2023-07-29T05:20:01;16.90;99.90
52058;DHT22;38063;53.210;6.504;2023-07-29T05:22:27;16.90;99.90
52058;DHT22;38063;53.210;6.504;2023-07-29T05:24:52;16.90;99.90
52058;DHT22;38063;53.210;6.504;2023-07-29T05:27:18;16.90;99.90
52058;DHT22;38063;53.210;6.504;2023-07-29T05:29:44;16.90;99.90
52058;DHT22;38063;53.210;6.504;2023-07-29T05:32:09;17.00;99.90
52058;DHT22;38063;53.210;6.504;2023-07-29T05:34:35;17.00;99.90
52058;DHT22;38063;53.210;6.504;2023-07-29T05:37:00;17.00;99.90
52058;DHT22;38063;53.210;6.504;2023-07-29T05:39:26;17.00;99.90
52058;DHT22;38063;53.210;6.504;2023-07-29T05:41:52;17.10;99.90
52058;DHT22;38063;53.210;6.504;2023-07-29T05:44:17;17.10;99.90
52058;DHT22;38063;53.210;6.504;2023-07-29T05:46:43;17.10;99.90
52058;DHT22;38063;53.210;6.504;2023-07-29T05:49:08;17.20;99.90
52058;DHT22;38063;53.210;6.504;2023-07-29T05:51:34;17.20;99.90
52058;DHT22;38063;53.210;6.504;2023-07-29T05:54:00;17.20;99.90
52058;DHT22;38063;53.210;6.504;2023-07-29T05:56:25;17.30;99.90
52058;DHT22;38063;53.210;6.504;2023-07-29T05:58:51;17.30;99.90
52058;DHT22;38063;53.210;6.504;2023-07-29T06:01:18;17.30;99.90
52058;DHT22;38063;53.210;6.504;2023-07-29T06:03:46;17.30;99.90
52058;DHT22;38063;53.210;6.504;2023-07-29T06:06:12;17.30;99.90
52058;DHT22;38063;53.210;6.504;2023-07-29T06:08:38;17.40;99.90
52058;DHT22;38063;53.210;6.504;2023-07-29T06:11:03;17.30;99.90
52058;DHT22;38063;53.210;6.504;2023-07-29T06:13:32;17.40;99.90
52058;DHT22;38063;53.210;6.504;2023-07-29T06:15:58;17.40;99.90
52058;DHT22;38063;53.210;6.504;2023-07-29T06:18:24;17.40;99.90
52058;DHT22;38063;53.210;6.504;2023-07-29T06:20:50;17.50;99.90
52058;DHT22;38063;53.210;6.504;2023-07-29T06:23:16;17.50;99.90
52058;DHT22;38063;53.210;6.504;2023-07-29T06:25:41;17.60;99.90
52058;DHT22;38063;53.210;6.504;2023-07-29T06:28:08;17.70;99.90
52058;DHT22;38063;53.210;6.504;2023-07-29T06:30:34;17.90;99.90
52058;DHT22;38063;53.210;6.504;2023-07-29T06:32:59;18.10;99.90
52058;DHT22;38063;53.210;6.504;2023-07-29T06:35:25;18.30;99.90
52058;DHT22;38063;53.210;6.504;2023-07-29T06:37:51;18.40;99.90
52058;DHT22;38063;53.210;6.504;2023-07-29T06:40:16;18.60;99.90
52058;DHT22;38063;53.210;6.504;2023-07-29T06:42:42;18.80;99.90
52058;DHT22;38063;53.210;6.504;2023-07-29T06:45:08;18.80;99.90
52058;DHT22;38063;53.210;6.504;2023-07-29T06:47:34;18.80;99.90
52058;DHT22;38063;53.210;6.504;2023-07-29T06:49:59;18.80;99.90
52058;DHT22;38063;53.210;6.504;2023-07-29T06:52:25;18.80;99.90
52058;DHT22;38063;53.210;6.504;2023-07-29T06:54:51;18.90;99.90
52058;DHT22;38063;53.210;6.504;2023-07-29T06:57:17;18.90;99.90
52058;DHT22;38063;53.210;6.504;2023-07-29T06:59:42;19.00;99.90
52058;DHT22;38063;53.210;6.504;2023-07-29T07:02:08;19.00;99.90
52058;DHT22;38063;53.210;6.504;2023-07-29T07:04:34;19.00;99.90
52058;DHT22;38063;53.210;6.504;2023-07-29T07:06:59;19.10;99.90
52058;DHT22;38063;53.210;6.504;2023-07-29T07:09:25;19.20;99.90
52058;DHT22;38063;53.210;6.504;2023-07-29T07:11:50;19.30;99.90
52058;DHT22;38063;53.210;6.504;2023-07-29T07:14:16;19.40;99.90
52058;DHT22;38063;53.210;6.504;2023-07-29T07:16:42;19.40;99.90
52058;DHT22;38063;53.210;6.504;2023-07-29T07:19:07;19.30;99.90
52058;DHT22;38063;53.210;6.504;2023-07-29T07:21:33;19.30;99.90
52058;DHT22;38063;53.210;6.504;2023-07-29T07:23:58;19.30;99.90
52058;DHT22;38063;53.210;6.504;2023-07-29T07:26:24;19.30;99.90
52058;DHT22;38063;53.210;6.504;2023-07-29T07:28:50;19.30;99.90
52058;DHT22;38063;53.210;6.504;2023-07-29T07:31:17;19.40;99.90
52058;DHT22;38063;53.210;6.504;2023-07-29T07:33:42;19.40;99.90
52058;DHT22;38063;53.210;6.504;2023-07-29T07:36:08;19.40;99.90
52058;DHT22;38063;53.210;6.504;2023-07-29T07:38:34;19.40;99.90
52058;DHT22;38063;53.210;6.504;2023-07-29T07:40:59;19.40;99.90
52058;DHT22;38063;53.210;6.504;2023-07-29T07:43:25;19.30;99.90
52058;DHT22;38063;53.210;6.504;2023-07-29T07:45:51;19.40;99.90
52058;DHT22;38063;53.210;6.504;2023-07-29T07:48:22;19.50;99.90
52058;DHT22;38063;53.210;6.504;2023-07-29T07:50:48;19.60;99.90
52058;DHT22;38063;53.210;6.504;2023-07-29T07:53:13;19.60;99.90
52058;DHT22;38063;53.210;6.504;2023-07-29T07:55:39;19.70;99.90
52058;DHT22;38063;53.210;6.504;2023-07-29T07:58:05;19.90;99.90
52058;DHT22;38063;53.210;6.504;2023-07-29T08:00:30;20.10;99.90
52058;DHT22;38063;53.210;6.504;2023-07-29T08:02:56;20.20;99.90
52058;DHT22;38063;53.210;6.504;2023-07-29T08:05:21;20.30;99.90
52058;DHT22;38063;53.210;6.504;2023-07-29T08:07:47;20.40;99.90
52058;DHT22;38063;53.210;6.504;2023-07-29T08:10:13;20.60;99.90
52058;DHT22;38063;53.210;6.504;2023-07-29T08:12:38;20.60;99.90
52058;DHT22;38063;53.210;6.504;2023-07-29T08:15:05;20.80;99.90
52058;DHT22;38063;53.210;6.504;2023-07-29T08:17:30;20.80;99.90
52058;DHT22;38063;53.210;6.504;2023-07-29T08:19:56;20.90;99.90
52058;DHT22;38063;53.210;6.504;2023-07-29T08:22:21;21.20;99.90
52058;DHT22;38063;53.210;6.504;2023-07-29T08:24:47;21.40;99.90
52058;DHT22;38063;53.210;6.504;2023-07-29T08:27:13;21.60;99.90
52058;DHT22;38063;53.210;6.504;2023-07-29T08:29:39;21.60;99.90
52058;DHT22;38063;53.210;6.504;2023-07-29T08:32:04;21.60;99.90
52058;DHT22;38063;53.210;6.504;2023-07-29T08:34:30;21.60;99.90
52058;DHT22;38063;53.210;6.504;2023-07-29T08:36:56;21.40;99.90
52058;DHT22;38063;53.210;6.504;2023-07-29T08:39:21;21.30;99.90
52058;DHT22;38063;53.210;6.504;2023-07-29T08:42:07;21.20;99.90
52058;DHT22;38063;53.210;6.504;2023-07-29T08:44:44;21.20;99.90
52058;DHT22;38063;53.210;6.504;2023-07-29T08:47:11;21.10;99.90
52058;DHT22;38063;53.210;6.504;2023-07-29T08:49:38;21.10;99.90
52058;DHT22;38063;53.210;6.504;2023-07-29T08:52:05;21.10;99.90
52058;DHT22;38063;53.210;6.504;2023-07-29T08:54:32;21.30;99.90
52058;DHT22;38063;53.210;6.504;2023-07-29T08:56:58;21.50;99.90
52058;DHT22;38063;53.210;6.504;2023-07-29T08:59:24;21.90;99.90
52058;DHT22;38063;53.210;6.504;2023-07-29T09:01:50;22.20;99.90
52058;DHT22;38063;53.210;6.504;2023-07-29T09:04:18;22.60;99.90
52058;DHT22;38063;53.210;6.504;2023-07-29T09:06:45;22.70;99.90
52058;DHT22;38063;53.210;6.504;2023-07-29T09:09:12;22.60;99.90
52058;DHT22;38063;53.210;6.504;2023-07-29T09:11:37;22.40;99.90
52058;DHT22;38063;53.210;6.504;2023-07-29T09:14:03;22.20;99.90
52058;DHT22;38063;53.210;6.504;2023-07-29T09:16:29;22.10;99.90
52058;DHT22;38063;53.210;6.504;2023-07-29T09:18:55;22.00;99.90
52058;DHT22;38063;53.210;6.504;2023-07-29T09:21:24;22.00;99.90
52058;DHT22;38063;53.210;6.504;2023-07-29T09:23:54;22.20;99.90
52058;DHT22;38063;53.210;6.504;2023-07-29T09:26:27;22.50;99.90
52058;DHT22;38063;53.210;6.504;2023-07-29T09:28:55;22.90;99.90
52058;DHT22;38063;53.210;6.504;2023-07-29T09:31:23;23.20;99.90
52058;DHT22;38063;53.210;6.504;2023-07-29T09:33:49;23.30;99.90
52058;DHT22;38063;53.210;6.504;2023-07-29T09:36:15;23.10;99.90
52058;DHT22;38063;53.210;6.504;2023-07-29T09:38:43;22.80;99.90
52058;DHT22;38063;53.210;6.504;2023-07-29T09:41:12;22.60;99.90
52058;DHT22;38063;53.210;6.504;2023-07-29T09:43:39;22.70;99.90
52058;DHT22;38063;53.210;6.504;2023-07-29T09:46:05;22.80;99.90
52058;DHT22;38063;53.210;6.504;2023-07-29T09:48:38;22.90;99.90
52058;DHT22;38063;53.210;6.504;2023-07-29T09:51:14;23.00;99.90
52058;DHT22;38063;53.210;6.504;2023-07-29T09:53:42;23.20;99.90
52058;DHT22;38063;53.210;6.504;2023-07-29T09:56:08;23.20;99.90
52058;DHT22;38063;53.210;6.504;2023-07-29T09:58:35;23.20;99.90
52058;DHT22;38063;53.210;6.504;2023-07-29T10:01:01;23.20;99.90
52058;DHT22;38063;53.210;6.504;2023-07-29T10:03:27;23.00;99.90
52058;DHT22;38063;53.210;6.504;2023-07-29T10:05:53;23.30;99.90
52058;DHT22;38063;53.210;6.504;2023-07-29T10:08:20;23.70;99.90
52058;DHT22;38063;53.210;6.504;2023-07-29T10:10:49;24.10;99.90
52058;DHT22;38063;53.210;6.504;2023-07-29T10:13:16;24.20;99.90
52058;DHT22;38063;53.210;6.504;2023-07-29T10:15:42;24.10;99.90
52058;DHT22;38063;53.210;6.504;2023-07-29T10:18:09;23.90;99.90
52058;DHT22;38063;53.210;6.504;2023-07-29T10:20:35;23.80;99.90
52058;DHT22;38063;53.210;6.504;2023-07-29T10:23:03;23.80;99.90
52058;DHT22;38063;53.210;6.504;2023-07-29T10:25:39;23.80;99.90
52058;DHT22;38063;53.210;6.504;2023-07-29T10:28:08;23.80;99.90
52058;DHT22;38063;53.210;6.504;2023-07-29T10:30:36;23.80;99.90
52058;DHT22;38063;53.210;6.504;2023-07-29T10:33:03;23.80;99.90
52058;DHT22;38063;53.210;6.504;2023-07-29T10:35:30;24.10;99.90
52058;DHT22;38063;53.210;6.504;2023-07-29T10:37:56;24.30;99.90
52058;DHT22;38063;53.210;6.504;2023-07-29T10:40:22;24.80;99.90
52058;DHT22;38063;53.210;6.504;2023-07-29T10:43:01;25.20;99.90
52058;DHT22;38063;53.210;6.504;2023-07-29T10:45:48;25.30;99.90
52058;DHT22;38063;53.210;6.504;2023-07-29T10:53:47;24.90;99.90
52058;DHT22;38063;53.210;6.504;2023-07-29T10:56:27;24.60;99.90
52058;DHT22;38063;53.210;6.504;2023-07-29T10:58:55;24.30;99.90
52058;DHT22;38063;53.210;6.504;2023-07-29T11:01:31;24.00;99.90
52058;DHT22;38063;53.210;6.504;2023-07-29T11:09:45;23.40;99.90
52058;DHT22;38063;53.210;6.504;2023-07-29T11:17:38;22.30;99.90
52058;DHT22;38063;53.210;6.504;2023-07-29T11:20:05;21.90;99.90
52058;DHT22;38063;53.210;6.504;2023-07-29T11:22:32;21.70;99.90
52058;DHT22;38063;53.210;6.504;2023-07-29T11:24:58;21.50;99.90
52058;DHT22;38063;53.210;6.504;2023-07-29T11:27:24;21.50;99.90
52058;DHT22;38063;53.210;6.504;2023-07-29T11:29:50;21.40;99.90
52058;DHT22;38063;53.210;6.504;2023-07-29T11:32:16;21.50;99.90
52058;DHT22;38063;53.210;6.504;2023-07-29T11:34:42;21.50;99.90
52058;DHT22;38063;53.210;6.504;2023-07-29T11:37:11;21.70;99.90
52058;DHT22;38063;53.210;6.504;2023-07-29T11:39:40;21.90;99.90
52058;DHT22;38063;53.210;6.504;2023-07-29T11:42:07;22.10;99.90
52058;DHT22;38063;53.210;6.504;2023-07-29T11:44:36;22.30;99.90
52058;DHT22;38063;53.210;6.504;2023-07-29T11:47:02;22.40;99.90
52058;DHT22;38063;53.210;6.504;2023-07-29T11:49:27;22.40;99.90
52058;DHT22;38063;53.210;6.504;2023-07-29T11:51:53;22.30;99.90
52058;DHT22;38063;53.210;6.504;2023-07-29T11:54:19;22.20;99.90
52058;DHT22;38063;53.210;6.504;2023-07-29T11:56:47;22.00;99.90
52058;DHT22;38063;53.210;6.504;2023-07-29T11:59:14;21.80;99.90
52058;DHT22;38063;53.210;6.504;2023-07-29T12:01:40;21.80;99.90
52058;DHT22;38063;53.210;6.504;2023-07-29T12:04:06;21.80;99.90
52058;DHT22;38063;53.210;6.504;2023-07-29T12:06:31;21.80;99.90
52058;DHT22;38063;53.210;6.504;2023-07-29T12:08:58;21.90;99.90
52058;DHT22;38063;53.210;6.504;2023-07-29T12:11:24;21.90;99.90
52058;DHT22;38063;53.210;6.504;2023-07-29T12:13:49;21.90;99.90
52058;DHT22;38063;53.210;6.504;2023-07-29T12:16:18;22.00;99.90
52058;DHT22;38063;53.210;6.504;2023-07-29T12:18:44;22.10;99.90
52058;DHT22;38063;53.210;6.504;2023-07-29T12:21:09;22.20;99.90
52058;DHT22;38063;53.210;6.504;2023-07-29T12:23:35;22.40;99.90
52058;DHT22;38063;53.210;6.504;2023-07-29T12:26:01;22.50;99.90
52058;DHT22;38063;53.210;6.504;2023-07-29T12:28:27;22.70;99.90
52058;DHT22;38063;53.210;6.504;2023-07-29T12:30:56;22.70;99.90
52058;DHT22;38063;53.210;6.504;2023-07-29T12:33:35;22.60;99.90
52058;DHT22;38063;53.210;6.504;2023-07-29T12:36:02;22.50;99.90
52058;DHT22;38063;53.210;6.504;2023-07-29T12:38:28;22.30;99.90
52058;DHT22;38063;53.210;6.504;2023-07-29T12:40:55;22.10;99.90
52058;DHT22;38063;53.210;6.504;2023-07-29T12:43:20;22.10;99.90
52058;DHT22;38063;53.210;6.504;2023-07-29T12:45:46;21.90;99.90
52058;DHT22;38063;53.210;6.504;2023-07-29T12:48:14;21.90;99.90
52058;DHT22;38063;53.210;6.504;2023-07-29T12:50:40;22.00;99.90
52058;DHT22;38063;53.210;6.504;2023-07-29T12:53:07;22.00;99.90
52058;DHT22;38063;53.210;6.504;2023-07-29T12:55:33;22.00;99.90
52058;DHT22;38063;53.210;6.504;2023-07-29T12:57:59;21.90;99.90
52058;DHT22;38063;53.210;6.504;2023-07-29T13:00:25;21.90;99.90
52058;DHT22;38063;53.210;6.504;2023-07-29T13:02:51;21.80;99.90
52058;DHT22;38063;53.210;6.504;2023-07-29T13:05:16;21.90;99.90
52058;DHT22;38063;53.210;6.504;2023-07-29T13:07:43;21.90;99.90
52058;DHT22;38063;53.210;6.504;2023-07-29T13:10:12;21.90;99.90
52058;DHT22;38063;53.210;6.504;2023-07-29T13:12:38;21.90;99.90
52058;DHT22;38063;53.210;6.504;2023-07-29T13:15:04;21.90;99.90
52058;DHT22;38063;53.210;6.504;2023-07-29T13:17:31;21.80;99.90
52058;DHT22;38063;53.210;6.504;2023-07-29T13:19:56;21.70;99.90
52058;DHT22;38063;53.210;6.504;2023-07-29T13:22:22;21.60;99.90
52058;DHT22;38063;53.210;6.504;2023-07-29T13:24:48;21.50;99.90
52058;DHT22;38063;53.210;6.504;2023-07-29T13:27:13;21.60;99.90
52058;DHT22;38063;53.210;6.504;2023-07-29T13:29:39;22.00;99.90
52058;DHT22;38063;53.210;6.504;2023-07-29T13:32:06;22.20;99.90
52058;DHT22;38063;53.210;6.504;2023-07-29T13:34:31;22.30;99.90
52058;DHT22;38063;53.210;6.504;2023-07-29T13:36:57;22.30;99.90
52058;DHT22;38063;53.210;6.504;2023-07-29T13:39:23;22.20;99.90
52058;DHT22;38063;53.210;6.504;2023-07-29T13:41:49;22.00;99.90
52058;DHT22;38063;53.210;6.504;2023-07-29T13:44:14;21.90;99.90
52058;DHT22;38063;53.210;6.504;2023-07-29T13:46:40;21.80;99.90
52058;DHT22;38063;53.210;6.504;2023-07-29T13:49:05;21.70;99.90
52058;DHT22;38063;53.210;6.504;2023-07-29T13:51:31;21.70;99.90
52058;DHT22;38063;53.210;6.504;2023-07-29T13:53:57;21.60;99.90
52058;DHT22;38063;53.210;6.504;2023-07-29T13:56:23;21.60;99.90
52058;DHT22;38063;53.210;6.504;2023-07-29T13:58:48;21.60;99.90
52058;DHT22;38063;53.210;6.504;2023-07-29T14:01:14;21.80;99.90
52058;DHT22;38063;53.210;6.504;2023-07-29T14:03:40;22.00;99.90
52058;DHT22;38063;53.210;6.504;2023-07-29T14:06:05;22.20;99.90
52058;DHT22;38063;53.210;6.504;2023-07-29T14:08:31;22.40;99.90
52058;DHT22;38063;53.210;6.504;2023-07-29T14:10:57;22.70;99.90
52058;DHT22;38063;53.210;6.504;2023-07-29T14:13:22;22.70;99.90
52058;DHT22;38063;53.210;6.504;2023-07-29T14:15:48;22.80;99.90
52058;DHT22;38063;53.210;6.504;2023-07-29T14:18:13;22.80;99.90
52058;DHT22;38063;53.210;6.504;2023-07-29T14:20:39;22.90;99.90
52058;DHT22;38063;53.210;6.504;2023-07-29T14:23:05;22.90;99.90
52058;DHT22;38063;53.210;6.504;2023-07-29T14:25:31;23.00;99.90
52058;DHT22;38063;53.210;6.504;2023-07-29T14:27:56;23.10;99.90
52058;DHT22;38063;53.210;6.504;2023-07-29T14:30:22;23.20;99.90
52058;DHT22;38063;53.210;6.504;2023-07-29T14:32:48;23.30;99.90
52058;DHT22;38063;53.210;6.504;2023-07-29T14:35:14;23.40;99.90
52058;DHT22;38063;53.210;6.504;2023-07-29T14:37:39;23.40;99.90
52058;DHT22;38063;53.210;6.504;2023-07-29T14:40:06;23.30;99.90
52058;DHT22;38063;53.210;6.504;2023-07-29T14:42:32;23.10;99.90
52058;DHT22;38063;53.210;6.504;2023-07-29T14:44:57;22.90;99.90
52058;DHT22;38063;53.210;6.504;2023-07-29T14:47:23;22.90;99.90
52058;DHT22;38063;53.210;6.504;2023-07-29T14:49:49;23.00;99.90
52058;DHT22;38063;53.210;6.504;2023-07-29T14:52:14;23.20;99.90
52058;DHT22;38063;53.210;6.504;2023-07-29T14:54:40;23.30;99.90
52058;DHT22;38063;53.210;6.504;2023-07-29T14:57:06;23.30;99.90
52058;DHT22;38063;53.210;6.504;2023-07-29T14:59:32;23.30;99.90
52058;DHT22;38063;53.210;6.504;2023-07-29T15:01:58;23.20;99.90
52058;DHT22;38063;53.210;6.504;2023-07-29T15:04:24;23.30;99.90
52058;DHT22;38063;53.210;6.504;2023-07-29T15:06:50;23.40;99.90
52058;DHT22;38063;53.210;6.504;2023-07-29T15:09:17;23.40;99.90
52058;DHT22;38063;53.210;6.504;2023-07-29T15:11:42;23.40;99.90
52058;DHT22;38063;53.210;6.504;2023-07-29T15:14:08;23.30;99.90
52058;DHT22;38063;53.210;6.504;2023-07-29T15:16:34;23.10;99.90
52058;DHT22;38063;53.210;6.504;2023-07-29T15:19:02;23.00;99.90
52058;DHT22;38063;53.210;6.504;2023-07-29T15:21:28;22.90;99.90
52058;DHT22;38063;53.210;6.504;2023-07-29T15:23:54;23.00;99.90
52058;DHT22;38063;53.210;6.504;2023-07-29T15:26:20;23.20;99.90
52058;DHT22;38063;53.210;6.504;2023-07-29T15:28:45;23.20;99.90
52058;DHT22;38063;53.210;6.504;2023-07-29T15:31:12;23.30;99.90
52058;DHT22;38063;53.210;6.504;2023-07-29T15:33:38;23.30;99.90
52058;DHT22;38063;53.210;6.504;2023-07-29T15:36:04;23.30;99.90
52058;DHT22;38063;53.210;6.504;2023-07-29T15:38:30;23.30;99.90
52058;DHT22;38063;53.210;6.504;2023-07-29T15:40:55;23.30;99.90
52058;DHT22;38063;53.210;6.504;2023-07-29T15:43:22;23.30;99.90
52058;DHT22;38063;53.210;6.504;2023-07-29T15:45:48;23.20;99.90
52058;DHT22;38063;53.210;6.504;2023-07-29T15:48:14;23.10;99.90
52058;DHT22;38063;53.210;6.504;2023-07-29T15:50:39;23.10;99.90